createdAt,value
2018-12-27T00:01:33.751Z,1.00
2018-12-27T00:06:37.534Z,0.75
2018-12-27T00:11:41.383Z,0.60
2018-12-27T00:16:45.147Z,1.00
2018-12-27T00:21:48.916Z,1.00
2018-12-27T00:26:52.703Z,1.00
2018-12-27T00:31:56.861Z,1.50
2018-12-27T00:37:00.970Z,2.00
2018-12-27T00:42:05.373Z,2.00
2018-12-27T00:47:09.519Z,3.00
2018-12-27T00:52:13.637Z,2.75
2018-12-27T00:57:17.811Z,3.00
2018-12-27T01:02:21.946Z,3.00
2018-12-27T01:07:26.080Z,4.00
2018-12-27T01:12:30.352Z,2.50
2018-12-27T01:17:34.805Z,2.60
2018-12-27T01:22:38.920Z,2.75
2018-12-27T01:27:43.095Z,3.00
2018-12-27T01:32:47.235Z,2.00
2018-12-27T01:37:51.377Z,2.40
2018-12-27T01:42:55.506Z,2.60
2018-12-27T01:47:59.628Z,2.25
2018-12-27T01:53:03.758Z,2.00
2018-12-27T01:58:07.954Z,2.25
2018-12-27T02:03:12.068Z,2.75
2018-12-27T02:08:16.188Z,2.00
2018-12-27T02:13:20.428Z,3.00
2018-12-27T02:18:24.546Z,3.00
2018-12-27T02:23:28.682Z,3.00
2018-12-27T02:28:32.800Z,3.00
2018-12-27T02:33:36.898Z,3.00
2018-12-27T02:38:41.138Z,2.75
2018-12-27T02:43:45.261Z,3.00
2018-12-27T02:48:49.361Z,2.00
2018-12-27T02:53:53.495Z,2.60
2018-12-27T02:58:57.627Z,3.00
2018-12-27T03:04:01.754Z,2.00
2018-12-27T03:09:06.338Z,2.75
2018-12-27T03:14:10.448Z,3.00
2018-12-27T03:19:14.585Z,2.00
2018-12-27T03:24:18.725Z,2.00
2018-12-27T03:29:22.826Z,3.50
2018-12-27T03:34:26.961Z,3.00
2018-12-27T03:39:31.096Z,2.80
2018-12-27T03:44:35.315Z,3.00
2018-12-27T03:49:39.549Z,3.00
2018-12-27T03:54:43.642Z,3.25
2018-12-27T03:59:47.813Z,2.75
2018-12-27T04:04:51.968Z,2.75
2018-12-27T04:09:56.074Z,3.50
2018-12-27T04:15:06.406Z,2.25
2018-12-27T04:20:10.243Z,3.60
2018-12-27T04:25:14.069Z,3.00
2018-12-27T04:30:17.871Z,3.00
2018-12-27T04:35:21.668Z,2.80
2018-12-27T04:40:25.446Z,3.00
2018-12-27T04:45:29.244Z,3.00
2018-12-27T04:50:33.046Z,3.00
2018-12-27T04:55:36.868Z,3.00
2018-12-27T05:00:40.652Z,2.00
2018-12-27T05:05:44.446Z,3.00
2018-12-27T05:10:48.240Z,3.00
2018-12-27T05:15:52.114Z,2.20
2018-12-27T05:20:55.900Z,3.00
2018-12-27T05:25:59.760Z,2.80
2018-12-27T05:31:03.579Z,2.00
2018-12-27T05:36:07.364Z,4.00
2018-12-27T05:41:11.168Z,2.20
2018-12-27T05:46:14.994Z,3.00
2018-12-27T05:51:18.781Z,3.00
2018-12-27T05:56:22.591Z,3.00
2018-12-27T06:01:26.387Z,3.00
2018-12-27T06:06:30.190Z,2.75
2018-12-27T06:11:33.970Z,2.00
2018-12-27T06:16:37.744Z,2.60
2018-12-27T06:21:41.543Z,2.75
2018-12-27T06:26:45.340Z,2.00
2018-12-27T06:31:49.128Z,3.25
2018-12-27T06:36:52.918Z,3.00
2018-12-27T06:41:56.710Z,2.00
2018-12-27T06:47:02.650Z,3.00
2018-12-27T06:52:06.449Z,2.00
2018-12-27T06:57:10.229Z,2.25
2018-12-27T07:02:14.012Z,3.00
2018-12-27T07:07:17.798Z,3.00
2018-12-27T07:12:21.595Z,3.00
2018-12-27T07:17:25.360Z,3.00
2018-12-27T07:22:29.207Z,3.00
2018-12-27T07:27:32.992Z,2.00
2018-12-27T07:32:36.762Z,2.75
2018-12-27T07:37:40.537Z,2.50
2018-12-27T07:42:44.300Z,3.00
2018-12-27T07:47:48.057Z,2.75
2018-12-27T07:52:51.839Z,2.00
2018-12-27T07:57:55.597Z,2.75
2018-12-27T08:02:59.384Z,3.00
2018-12-27T08:08:03.154Z,2.60
2018-12-27T08:13:06.923Z,2.40
2018-12-27T08:18:10.691Z,2.00
2018-12-27T08:23:14.464Z,2.25
2018-12-27T08:28:18.216Z,2.00
2018-12-27T08:33:21.979Z,2.00
2018-12-27T08:38:25.749Z,10.60
2018-12-27T08:43:29.511Z,7.00
2018-12-27T08:48:33.286Z,6.50
2018-12-27T08:53:37.070Z,4.80
2018-12-27T08:58:40.826Z,4.40
2018-12-27T09:03:44.591Z,3.00
2018-12-27T09:08:48.354Z,2.75
2018-12-27T09:13:52.117Z,2.20
2018-12-27T09:18:55.879Z,2.00
2018-12-27T09:23:59.649Z,2.50
2018-12-27T09:29:03.413Z,2.20
2018-12-27T09:34:07.168Z,2.25
2018-12-27T09:39:10.937Z,4.00
2018-12-27T09:44:14.697Z,4.00
2018-12-27T09:49:18.459Z,4.20
2018-12-27T09:54:22.238Z,3.00
2018-12-27T09:59:26.091Z,4.00
2018-12-27T10:04:29.854Z,3.00
2018-12-27T10:09:33.612Z,2.60
2018-12-27T10:14:37.366Z,3.75
2018-12-27T10:19:41.141Z,2.60
2018-12-27T10:24:44.946Z,3.50
2018-12-27T10:29:48.703Z,3.00
2018-12-27T10:34:52.480Z,3.50
2018-12-27T10:39:56.318Z,2.50
2018-12-27T10:45:00.082Z,2.25
2018-12-27T10:50:04.483Z,3.00
2018-12-27T10:55:08.331Z,3.00
2018-12-27T11:00:12.670Z,3.00
2018-12-27T11:05:16.421Z,2.75
2018-12-27T11:10:20.181Z,2.00
2018-12-27T11:15:23.937Z,2.40
2018-12-27T11:20:27.709Z,3.00
2018-12-27T11:25:31.477Z,2.00
2018-12-27T11:30:35.457Z,2.40
2018-12-27T11:35:39.206Z,2.00
2018-12-27T11:40:42.978Z,2.00
2018-12-27T11:45:46.747Z,2.50
2018-12-27T11:50:50.507Z,2.00
2018-12-27T11:55:54.262Z,2.00
2018-12-27T12:00:58.016Z,2.20
2018-12-27T12:06:03.308Z,2.40
2018-12-27T12:11:07.423Z,2.00
2018-12-27T12:16:11.192Z,2.00
2018-12-27T12:43:58.727Z,3.00
2018-12-27T12:49:02.503Z,2.00
2018-12-27T12:54:06.574Z,1.00
2018-12-27T13:04:41.012Z,1.40
2018-12-27T13:09:44.795Z,2.00
2018-12-27T13:14:48.569Z,1.25
2018-12-27T13:19:52.343Z,1.00
2018-12-27T13:24:56.128Z,2.00
2018-12-27T13:29:59.902Z,1.50
2018-12-27T13:35:03.747Z,1.50
2018-12-27T13:40:07.763Z,1.40
2018-12-27T13:45:11.531Z,2.00
2018-12-27T13:50:15.306Z,1.50
2018-12-27T13:55:19.069Z,1.20
2018-12-27T14:00:22.854Z,1.00
2018-12-27T14:05:26.712Z,1.00
2018-12-27T14:10:30.487Z,2.00
2018-12-27T14:15:34.259Z,1.00
2018-12-27T14:20:38.025Z,1.00
2018-12-27T14:25:41.799Z,1.00
2018-12-27T14:30:45.589Z,1.40
2018-12-27T14:35:49.399Z,1.00
2018-12-27T14:40:53.170Z,1.25
2018-12-27T14:45:56.947Z,1.40
2018-12-27T14:51:00.752Z,1.00
2018-12-27T14:56:04.529Z,1.00
2018-12-27T15:01:08.306Z,1.00
2018-12-27T15:06:12.081Z,1.00
2018-12-27T15:11:15.868Z,0.40
2018-12-27T15:16:19.640Z,0.00
2018-12-27T15:21:23.427Z,0.75
2018-12-27T15:26:27.210Z,1.00
2018-12-27T15:31:30.986Z,1.00
2018-12-27T15:36:34.755Z,1.00
2018-12-27T15:41:38.525Z,0.50
2018-12-27T15:46:42.299Z,1.00
2018-12-27T15:51:46.076Z,1.00
2018-12-27T15:56:49.846Z,0.00
2018-12-27T16:01:53.662Z,1.00
2018-12-27T16:07:01.655Z,1.50
2018-12-27T16:12:02.966Z,1.00
2018-12-27T16:17:06.734Z,0.25
2018-12-27T16:22:10.512Z,1.00
2018-12-27T16:27:14.326Z,1.00
2018-12-27T16:32:18.126Z,0.00
2018-12-27T16:37:21.918Z,0.40
2018-12-27T16:42:25.682Z,0.25
2018-12-27T16:47:29.463Z,0.50
2018-12-27T16:52:33.238Z,0.00
2018-12-27T16:57:37.011Z,0.60
2018-12-27T17:02:40.793Z,1.00
2018-12-27T17:07:44.598Z,1.00
2018-12-27T17:12:48.382Z,3.00
2018-12-27T17:17:52.177Z,4.00
2018-12-27T17:22:55.956Z,8.75
2018-12-27T17:27:59.750Z,10.00
2018-12-27T17:33:03.545Z,11.50
2018-12-27T17:38:07.335Z,11.80
2018-12-27T17:43:11.118Z,9.75
2018-12-27T17:48:14.901Z,10.00
2018-12-27T17:53:18.762Z,11.40
2018-12-27T17:58:22.549Z,9.00
2018-12-27T18:03:26.329Z,8.25
2018-12-27T18:08:30.117Z,9.00
2018-12-27T18:13:33.921Z,7.00
2018-12-27T18:18:37.713Z,8.00
2018-12-27T18:23:41.499Z,7.00
2018-12-27T18:28:45.281Z,7.00
2018-12-27T18:33:49.077Z,7.00
2018-12-27T18:38:52.934Z,6.00
2018-12-27T18:43:56.803Z,6.00
2018-12-27T18:49:00.600Z,7.75
2018-12-27T18:54:04.399Z,4.40
2018-12-27T18:59:08.235Z,7.00
2018-12-27T19:04:12.032Z,4.00
2018-12-27T19:09:15.831Z,6.00
2018-12-27T19:14:19.621Z,4.50
2018-12-27T19:19:23.453Z,6.00
2018-12-27T19:24:27.257Z,3.75
2018-12-27T19:29:31.045Z,6.00
2018-12-27T19:34:34.871Z,5.00
2018-12-27T19:39:38.760Z,5.00
2018-12-27T19:44:42.578Z,4.00
2018-12-27T19:49:46.386Z,4.00
2018-12-27T19:54:50.169Z,3.75
2018-12-27T19:59:53.975Z,3.00
2018-12-27T20:04:57.743Z,4.00
2018-12-27T20:10:02.967Z,4.00
2018-12-27T20:15:06.989Z,3.40
2018-12-27T20:20:10.785Z,3.00
2018-12-27T20:25:14.567Z,3.00
2018-12-27T20:30:18.342Z,4.00
2018-12-27T20:35:22.152Z,4.00
2018-12-27T20:40:25.998Z,3.00
2018-12-27T20:45:29.790Z,3.00
2018-12-27T20:50:33.568Z,3.00
2018-12-27T20:55:37.385Z,2.75
2018-12-27T21:00:41.222Z,3.00
2018-12-27T21:05:45.004Z,3.00
2018-12-27T21:10:49.342Z,3.50
2018-12-27T21:15:53.127Z,2.00
2018-12-27T21:20:56.918Z,2.60
2018-12-27T21:26:00.702Z,3.00
2018-12-27T21:31:04.474Z,3.50
2018-12-27T21:36:08.266Z,3.00
2018-12-27T21:41:12.103Z,3.00
2018-12-27T21:46:15.863Z,2.00
2018-12-27T21:51:19.650Z,2.00
2018-12-27T21:56:23.487Z,2.50
2018-12-27T22:01:27.275Z,3.00
2018-12-27T22:06:31.067Z,2.75
2018-12-27T22:11:34.864Z,2.00
2018-12-27T22:16:38.649Z,2.00
2018-12-27T22:21:42.451Z,1.75
2018-12-27T22:26:46.247Z,2.00
2018-12-27T22:31:50.958Z,2.25
2018-12-27T22:36:54.817Z,2.75
2018-12-27T22:41:58.629Z,2.75
2018-12-27T22:47:02.425Z,3.00
2018-12-27T22:52:06.227Z,2.20
2018-12-27T22:57:10.016Z,2.80
2018-12-27T23:02:13.831Z,2.80
2018-12-27T23:07:17.646Z,2.00
2018-12-27T23:12:21.459Z,2.50
2018-12-27T23:17:25.248Z,2.20
2018-12-27T23:22:29.094Z,2.00
2018-12-27T23:27:32.897Z,2.40
2018-12-27T23:32:36.694Z,3.00
2018-12-27T23:37:40.482Z,2.00
2018-12-27T23:42:44.289Z,2.75
2018-12-27T23:47:48.087Z,2.00
2018-12-27T23:52:51.884Z,2.20
2018-12-27T23:57:56.771Z,3.00
